Conway, North Dakota
Current Conditions -  °F | °C
As of 6:55 AM on Wednesday 22 Oct 2014 (Local Time) from KGAF Reporting Station
Clear Clear  
Wind Chill: 12°   Ceiling: Unl
Heat Index: 12°   Visibility: 10mi
Dew Point:   Wind: 17mph
Humidity: 62%   Direction: 160°SSE
Pressure: 29.78"   Gusts: NA
Location:  48.2362°N, 97.4515°W
Report Text: KGAF 221155Z AUTO 16015KT 10SM CLR 12/05 A2978 RMK AO2
Loading
Personal Weather Stations






























Interactive Weather Map
Tropical Storm Tracking
New forecast layout! Learn more

10-Day Weather Forecast

Advertisements
Track Severe Weather on mobile